createdAt,value
2022-12-11T00:00:42.625Z,12.53
2022-12-11T00:03:14.166Z,12.63
2022-12-11T00:05:42.559Z,12.23
2022-12-11T00:08:08.947Z,11.10
2022-12-11T00:10:37.941Z,11.43
2022-12-11T00:13:05.124Z,12.80
2022-12-11T00:15:31.615Z,12.27
2022-12-11T00:17:58.029Z,12.07
2022-12-11T00:20:24.756Z,11.90
2022-12-11T00:22:51.227Z,11.97
2022-12-11T00:25:17.721Z,11.53
2022-12-11T00:27:46.682Z,14.83
2022-12-11T00:30:13.836Z,12.50
2022-12-11T00:32:40.243Z,11.00
2022-12-11T00:35:06.738Z,11.83
2022-12-11T00:37:33.193Z,10.60
2022-12-11T00:39:59.571Z,12.30
2022-12-11T00:42:26.345Z,11.77
2022-12-11T00:44:53.627Z,11.87
2022-12-11T00:47:20.147Z,11.17
2022-12-11T00:49:49.795Z,11.13
2022-12-11T00:52:17.984Z,10.17
2022-12-11T00:54:44.675Z,11.07
2022-12-11T00:57:11.115Z,12.00
2022-12-11T00:59:37.622Z,10.10
2022-12-11T01:02:04.367Z,9.63
2022-12-11T01:04:30.733Z,9.87
2022-12-11T01:06:57.166Z,9.33
2022-12-11T01:09:42.115Z,8.63
2022-12-11T01:12:08.479Z,9.47
2022-12-11T01:14:34.794Z,9.30
2022-12-11T01:17:01.592Z,9.50
2022-12-11T01:19:28.466Z,9.43
2022-12-11T01:21:54.847Z,8.67
2022-12-11T01:24:21.170Z,8.10
2022-12-11T01:26:47.576Z,9.10
2022-12-11T01:29:13.935Z,9.30
2022-12-11T01:31:40.324Z,9.40
2022-12-11T01:34:07.131Z,10.10
2022-12-11T01:36:33.515Z,8.87
2022-12-11T01:38:59.886Z,9.67
2022-12-11T01:41:26.484Z,10.00
2022-12-11T01:44:27.786Z,10.47
2022-12-11T01:46:54.330Z,8.50
2022-12-11T01:49:24.830Z,10.00
2022-12-11T01:51:56.511Z,9.00
2022-12-11T01:54:25.499Z,9.47
2022-12-11T01:56:54.854Z,9.13
2022-12-11T01:59:26.899Z,10.33
2022-12-11T02:02:07.633Z,10.00
2022-12-11T02:04:36.350Z,8.93
2022-12-11T02:07:03.639Z,9.67
2022-12-11T02:09:33.321Z,9.70
2022-12-11T02:12:07.519Z,9.83
2022-12-11T02:14:55.276Z,9.60
2022-12-11T02:17:33.615Z,9.53
2022-12-11T02:20:10.512Z,9.83
2022-12-11T02:23:15.190Z,10.53
2022-12-11T02:25:54.553Z,9.90
2022-12-11T02:28:31.751Z,9.80
2022-12-11T02:31:07.243Z,11.40
2022-12-11T02:33:42.268Z,10.50
2022-12-11T02:36:09.845Z,9.00
2022-12-11T02:38:41.729Z,9.03
2022-12-11T02:41:10.488Z,9.97
2022-12-11T02:43:38.561Z,9.40
2022-12-11T02:46:07.347Z,9.63
2022-12-11T02:48:35.965Z,8.50
2022-12-11T02:51:04.790Z,10.80
2022-12-11T02:53:35.075Z,9.53
2022-12-11T02:56:11.473Z,8.83
2022-12-11T02:58:58.516Z,8.97
2022-12-11T03:01:26.184Z,9.87
2022-12-11T03:03:53.507Z,9.10
2022-12-11T03:06:24.082Z,9.23
2022-12-11T03:08:51.921Z,9.33
2022-12-11T03:11:18.289Z,9.80
2022-12-11T03:13:44.914Z,11.07
2022-12-11T03:16:30.973Z,10.40
2022-12-11T03:19:15.628Z,9.53
2022-12-11T03:21:53.978Z,10.03
2022-12-11T03:24:22.209Z,10.77
2022-12-11T03:27:14.736Z,10.17
2022-12-11T03:29:51.490Z,9.27
2022-12-11T03:32:25.539Z,9.80
2022-12-11T03:34:59.689Z,10.03
2022-12-11T03:37:30.990Z,10.90
2022-12-11T03:40:03.086Z,10.40
2022-12-11T03:42:31.183Z,11.40
2022-12-11T03:45:00.054Z,10.10
2022-12-11T03:47:28.421Z,10.13
2022-12-11T03:49:56.758Z,9.53
2022-12-11T03:52:27.227Z,9.60
2022-12-11T03:54:56.723Z,9.80
2022-12-11T03:57:28.077Z,10.80
2022-12-11T03:59:54.454Z,10.80
2022-12-11T04:02:20.832Z,10.60
2022-12-11T04:04:47.218Z,11.60
2022-12-11T04:07:13.565Z,9.70
2022-12-11T04:09:39.943Z,10.70
2022-12-11T04:12:06.440Z,8.90
2022-12-11T04:14:51.638Z,10.37
2022-12-11T04:17:38.046Z,9.90
2022-12-11T04:20:24.797Z,10.53
2022-12-11T04:23:09.470Z,10.40
2022-12-11T04:25:35.816Z,10.57
2022-12-11T04:28:02.191Z,10.37
2022-12-11T04:30:33.949Z,9.30
2022-12-11T04:33:01.638Z,9.17
2022-12-11T04:35:28.269Z,10.03
2022-12-11T04:37:54.650Z,10.10
2022-12-11T04:40:21.199Z,12.33
2022-12-11T04:42:48.043Z,10.00
2022-12-11T04:45:14.900Z,12.03
2022-12-11T04:47:42.013Z,9.43
2022-12-11T04:50:11.134Z,11.27
2022-12-11T04:52:37.526Z,11.10
2022-12-11T04:55:05.982Z,10.10
2022-12-11T04:57:32.301Z,10.40
2022-12-11T04:59:59.856Z,10.73
2022-12-11T05:02:26.898Z,11.33
2022-12-11T05:04:53.367Z,11.10
2022-12-11T05:07:19.698Z,10.70
2022-12-11T05:09:46.059Z,11.90
2022-12-11T05:12:12.399Z,10.53
2022-12-11T05:14:38.834Z,10.77
2022-12-11T05:17:05.157Z,10.30
2022-12-11T05:19:31.515Z,11.40
2022-12-11T05:21:57.853Z,11.33
2022-12-11T05:24:24.324Z,12.10
2022-12-11T05:26:50.642Z,11.30
2022-12-11T05:29:17.016Z,10.50
2022-12-11T05:31:43.677Z,10.30
2022-12-11T05:34:10.111Z,10.07
2022-12-11T05:36:36.706Z,11.50
2022-12-11T05:39:04.065Z,11.00
2022-12-11T05:41:32.522Z,10.27
2022-12-11T05:43:59.554Z,11.70
2022-12-11T05:46:28.274Z,10.40
2022-12-11T05:48:58.605Z,11.03
2022-12-11T05:51:25.858Z,11.00
2022-12-11T05:53:53.498Z,10.10
2022-12-11T05:56:23.157Z,10.50
2022-12-11T05:58:50.982Z,11.87
2022-12-11T06:01:23.669Z,12.50
2022-12-11T06:03:50.143Z,10.50
2022-12-11T06:06:16.835Z,11.37
2022-12-11T06:08:43.244Z,11.70
2022-12-11T06:11:11.435Z,11.20
2022-12-11T06:13:37.796Z,11.60
2022-12-11T06:16:06.338Z,10.70
2022-12-11T06:18:36.784Z,11.87
2022-12-11T06:21:16.476Z,8.83
2022-12-11T06:23:44.245Z,10.67
2022-12-11T06:26:11.336Z,9.00
2022-12-11T06:28:38.298Z,8.80
2022-12-11T06:31:05.210Z,9.10
2022-12-11T06:33:32.480Z,9.23
2022-12-11T06:36:20.321Z,9.30
2022-12-11T06:38:47.825Z,8.87
2022-12-11T06:41:14.736Z,8.63
2022-12-11T06:43:42.848Z,8.17
2022-12-11T06:46:11.770Z,8.40
2022-12-11T06:48:38.411Z,9.03
2022-12-11T06:51:09.855Z,8.50
2022-12-11T06:53:36.640Z,8.40
2022-12-11T06:56:08.875Z,8.40
2022-12-11T06:58:36.356Z,7.57
2022-12-11T07:01:04.312Z,8.30
2022-12-11T07:03:31.022Z,8.30
2022-12-11T07:06:02.347Z,8.00
2022-12-11T07:08:29.540Z,8.33
2022-12-11T07:10:56.355Z,7.80
2022-12-11T07:13:22.678Z,7.07
2022-12-11T07:15:49.110Z,8.20
2022-12-11T07:18:15.429Z,7.97
2022-12-11T07:20:42.178Z,7.80
2022-12-11T07:23:08.989Z,8.10
2022-12-11T07:25:37.659Z,7.77
2022-12-11T07:28:04.032Z,9.07
2022-12-11T07:30:31.079Z,8.17
2022-12-11T07:32:57.429Z,8.17
2022-12-11T07:35:23.821Z,10.10
2022-12-11T07:37:50.793Z,8.77
2022-12-11T07:40:17.163Z,8.50
2022-12-11T07:42:46.238Z,9.23
2022-12-11T07:45:13.687Z,9.53
2022-12-11T07:47:40.186Z,9.23
2022-12-11T07:50:06.903Z,10.50
2022-12-11T07:52:34.428Z,7.93
2022-12-11T07:55:00.772Z,8.77
2022-12-11T07:57:28.031Z,9.30
2022-12-11T07:59:54.518Z,9.60
2022-12-11T08:02:22.064Z,11.63
2022-12-11T08:04:48.446Z,8.53
2022-12-11T08:07:14.775Z,8.80
2022-12-11T08:09:41.285Z,9.70
2022-12-11T08:12:07.615Z,12.83
2022-12-11T08:14:34.285Z,15.37
2022-12-11T08:17:02.333Z,15.70
2022-12-11T08:19:28.796Z,13.53
2022-12-11T08:21:55.126Z,16.67
2022-12-11T08:24:21.885Z,15.07
2022-12-11T08:26:48.666Z,13.37
2022-12-11T08:29:15.069Z,12.97
2022-12-11T08:31:42.426Z,12.77
2022-12-11T08:34:08.798Z,10.60
2022-12-11T08:36:35.553Z,11.80
2022-12-11T08:39:01.868Z,11.50
2022-12-11T08:41:30.167Z,11.83
2022-12-11T08:43:58.564Z,11.07
2022-12-11T08:46:27.874Z,10.67
2022-12-11T08:48:54.975Z,9.47
2022-12-11T08:51:24.662Z,10.37
2022-12-11T08:53:51.447Z,8.17
2022-12-11T08:56:20.519Z,8.87
2022-12-11T08:58:47.214Z,10.43
2022-12-11T09:01:16.755Z,10.20
2022-12-11T09:03:43.482Z,9.37
2022-12-11T09:06:16.039Z,9.80
2022-12-11T09:08:48.580Z,9.43
2022-12-11T09:11:23.924Z,10.50
2022-12-11T09:13:50.510Z,10.70
2022-12-11T09:16:18.912Z,9.30
2022-12-11T09:18:47.663Z,9.40
2022-12-11T09:21:15.809Z,9.33
2022-12-11T09:23:42.509Z,10.00
2022-12-11T09:26:12.458Z,8.77
2022-12-11T09:28:45.735Z,9.57
2022-12-11T09:31:19.592Z,9.80
2022-12-11T09:33:46.607Z,8.63
2022-12-11T09:36:13.251Z,9.33
2022-12-11T09:38:39.621Z,11.97
2022-12-11T09:41:38.401Z,11.43
2022-12-11T09:44:16.409Z,10.83
2022-12-11T09:46:43.389Z,10.60
2022-12-11T09:49:24.755Z,10.03
2022-12-11T09:52:24.068Z,11.10
2022-12-11T09:54:54.211Z,10.77
2022-12-11T09:57:52.762Z,8.60
2022-12-11T10:00:26.357Z,8.27
2022-12-11T10:02:55.331Z,9.07
2022-12-11T10:05:42.016Z,9.13
2022-12-11T10:08:17.679Z,8.63
2022-12-11T10:11:03.199Z,7.67
2022-12-11T10:13:47.595Z,9.00
2022-12-11T10:16:41.847Z,7.90
2022-12-11T10:19:22.011Z,8.90
2022-12-11T10:21:51.059Z,8.10
2022-12-11T10:24:59.374Z,8.87
2022-12-11T10:27:22.876Z,8.27
2022-12-11T10:30:01.145Z,8.70
2022-12-11T10:32:42.902Z,7.57
2022-12-11T10:35:18.818Z,8.37
2022-12-11T10:37:45.288Z,6.60
2022-12-11T10:40:13.175Z,6.80
2022-12-11T10:42:44.160Z,8.20
2022-12-11T10:45:16.382Z,6.83
2022-12-11T10:47:42.705Z,9.10
2022-12-11T10:50:23.967Z,7.53
2022-12-11T10:52:51.640Z,7.73
2022-12-11T10:55:50.058Z,8.00
2022-12-11T10:58:20.006Z,7.13
2022-12-11T11:00:49.151Z,8.77
2022-12-11T12:05:05.443Z,6.33
2022-12-11T12:07:46.770Z,6.73
2022-12-11T12:10:29.051Z,7.00
2022-12-11T12:13:47.556Z,7.70
2022-12-11T12:16:29.312Z,6.57
2022-12-11T12:19:13.380Z,7.40
2022-12-11T12:21:47.079Z,6.10
2022-12-11T12:24:41.383Z,6.87
2022-12-11T12:27:55.271Z,5.80
2022-12-11T12:30:23.697Z,6.10
2022-12-11T12:33:34.719Z,6.90
2022-12-11T12:36:15.544Z,6.40
2022-12-11T12:39:10.897Z,6.90
2022-12-11T12:41:37.188Z,7.30
2022-12-11T12:44:17.588Z,6.23
2022-12-11T12:46:51.221Z,6.03
2022-12-11T12:49:40.316Z,7.03
2022-12-11T12:52:15.634Z,7.43
2022-12-11T12:55:06.549Z,7.07
2022-12-11T12:57:34.843Z,6.70
2022-12-11T13:00:01.231Z,7.00
2022-12-11T13:02:28.277Z,6.80
2022-12-11T13:05:07.521Z,6.60
2022-12-11T13:07:34.042Z,7.20
2022-12-11T13:10:05.055Z,6.73
2022-12-11T13:12:42.548Z,7.00
2022-12-11T13:15:26.985Z,6.20
2022-12-11T13:17:53.851Z,6.60
2022-12-11T13:20:23.462Z,7.00
2022-12-11T13:23:15.852Z,7.57
2022-12-11T13:25:49.978Z,7.67
2022-12-11T13:28:25.826Z,7.73
2022-12-11T13:31:13.731Z,7.03
2022-12-11T13:33:47.246Z,8.43
2022-12-11T13:36:18.910Z,6.47
2022-12-11T13:38:53.470Z,6.90
2022-12-11T13:41:20.550Z,7.80
2022-12-11T13:43:49.458Z,7.30
2022-12-11T13:46:22.489Z,9.30
2022-12-11T13:48:54.201Z,7.77
2022-12-11T13:51:22.944Z,8.07
2022-12-11T13:54:01.626Z,7.87
2022-12-11T13:56:27.978Z,8.43
2022-12-11T13:58:54.519Z,6.93
2022-12-11T14:01:33.974Z,7.90
2022-12-11T14:04:09.474Z,8.30
2022-12-11T14:06:38.235Z,7.83
2022-12-11T14:09:06.621Z,7.83
2022-12-11T14:11:43.112Z,10.20
2022-12-11T14:14:28.473Z,10.27
2022-12-11T14:16:55.243Z,10.30
2022-12-11T14:19:23.011Z,12.90
2022-12-11T14:22:01.397Z,15.20
2022-12-11T14:24:29.173Z,12.90
2022-12-11T14:26:55.922Z,13.97
2022-12-11T14:29:29.877Z,11.10
2022-12-11T14:32:01.446Z,11.97
2022-12-11T14:34:39.653Z,12.67
2022-12-11T14:37:07.614Z,10.57
2022-12-11T14:39:36.628Z,11.03
2022-12-11T14:42:07.920Z,10.87
2022-12-11T14:45:20.957Z,9.47
2022-12-11T14:47:47.663Z,9.80
2022-12-11T14:50:35.529Z,8.83
2022-12-11T14:53:07.616Z,8.93
2022-12-11T14:55:36.605Z,8.90
2022-12-11T14:58:07.818Z,7.90
2022-12-11T15:00:37.480Z,8.40
2022-12-11T15:03:22.544Z,9.20
2022-12-11T15:05:54.410Z,9.50
2022-12-11T15:08:35.757Z,9.10
2022-12-11T15:11:06.759Z,9.70
2022-12-11T15:13:36.025Z,10.13
2022-12-11T15:16:04.926Z,8.80
2022-12-11T15:18:35.647Z,9.40
2022-12-11T15:21:09.874Z,8.17
2022-12-11T15:23:54.695Z,9.43
2022-12-11T15:26:39.705Z,11.70
2022-12-11T15:29:24.788Z,10.93
2022-12-11T15:32:04.772Z,10.83
2022-12-11T15:34:42.423Z,13.00
2022-12-11T15:37:29.354Z,12.07
2022-12-11T15:39:57.986Z,12.30
2022-12-11T15:42:31.804Z,11.53
2022-12-11T15:44:59.360Z,15.80
2022-12-11T15:47:28.329Z,14.70
2022-12-11T15:50:07.636Z,14.60
2022-12-11T15:52:34.574Z,13.77
2022-12-11T15:55:00.965Z,12.20
2022-12-11T15:57:27.341Z,12.57
2022-12-11T15:59:55.004Z,14.07
2022-12-11T16:02:21.519Z,12.90
2022-12-11T16:04:47.875Z,13.03
2022-12-11T16:07:19.829Z,14.33
2022-12-11T16:09:46.710Z,14.33
2022-12-11T16:12:14.266Z,15.07
2022-12-11T16:14:41.858Z,14.93
2022-12-11T16:17:09.676Z,14.80
2022-12-11T16:19:36.805Z,15.07
2022-12-11T16:22:03.937Z,13.90
2022-12-11T16:24:30.541Z,15.67
2022-12-11T16:26:56.988Z,16.00
2022-12-11T16:29:23.343Z,15.10
2022-12-11T16:31:49.673Z,16.50
2022-12-11T16:34:16.110Z,16.67
2022-12-11T16:36:42.525Z,16.40
2022-12-11T16:39:11.775Z,19.80
2022-12-11T16:41:38.751Z,20.83
2022-12-11T16:44:05.298Z,20.80
2022-12-11T16:46:31.694Z,23.83
2022-12-11T16:48:58.128Z,22.47
2022-12-11T16:51:24.492Z,25.37
2022-12-11T16:53:50.942Z,25.27
2022-12-11T16:56:17.519Z,25.23
2022-12-11T16:58:43.884Z,25.67
2022-12-11T17:01:15.241Z,24.47
2022-12-11T17:03:42.785Z,25.80
2022-12-11T17:06:11.896Z,25.07
2022-12-11T17:08:39.039Z,25.43
2022-12-11T17:11:07.057Z,25.27
2022-12-11T17:13:36.122Z,22.50
2022-12-11T17:16:06.914Z,21.50
2022-12-11T17:18:33.810Z,20.73
2022-12-11T17:21:04.660Z,26.63
2022-12-11T17:23:31.032Z,25.03
2022-12-11T17:25:57.361Z,26.07
2022-12-11T17:28:23.815Z,26.70
2022-12-11T17:30:50.312Z,26.70
2022-12-11T17:33:16.695Z,26.80
2022-12-11T17:35:43.021Z,27.13
2022-12-11T17:38:09.460Z,30.87
2022-12-11T17:40:40.994Z,30.10
2022-12-11T17:43:09.265Z,33.77
2022-12-11T17:45:46.859Z,31.20
2022-12-11T17:48:13.547Z,28.00
2022-12-11T17:50:44.283Z,30.00
2022-12-11T17:53:12.875Z,28.33
2022-12-11T17:55:42.633Z,28.50
2022-12-11T17:58:11.627Z,23.87
2022-12-11T18:00:39.952Z,23.37
2022-12-11T18:03:07.066Z,26.40
2022-12-11T18:05:33.826Z,25.13
2022-12-11T18:08:00.225Z,23.73
2022-12-11T18:10:26.834Z,24.87
2022-12-11T18:12:53.202Z,26.50
2022-12-11T18:15:19.661Z,26.63
2022-12-11T18:17:46.282Z,24.90
2022-12-11T18:20:14.653Z,24.20
2022-12-11T18:22:41.003Z,24.00
2022-12-11T18:25:10.435Z,24.17
2022-12-11T18:27:38.473Z,26.40
2022-12-11T18:30:05.562Z,27.70
2022-12-11T18:32:31.882Z,27.50
2022-12-11T18:34:58.341Z,29.83
2022-12-11T18:37:27.880Z,29.67
2022-12-11T18:39:54.663Z,28.80
2022-12-11T18:42:36.432Z,27.67
2022-12-11T18:45:02.979Z,26.43
2022-12-11T18:47:29.403Z,26.80
2022-12-11T18:49:55.832Z,25.73
2022-12-11T18:52:22.187Z,26.07
2022-12-11T18:54:49.116Z,26.70
2022-12-11T18:57:15.476Z,25.97
2022-12-11T18:59:41.840Z,26.00
2022-12-11T19:02:08.271Z,24.70
2022-12-11T19:04:36.069Z,25.10
2022-12-11T19:07:02.364Z,26.83
2022-12-11T19:09:31.604Z,24.20
2022-12-11T19:12:00.283Z,25.87
2022-12-11T19:14:26.648Z,25.10
2022-12-11T19:16:53.106Z,23.40
2022-12-11T19:19:21.702Z,28.87
2022-12-11T19:21:49.177Z,45.30
2022-12-11T19:24:21.889Z,38.00
2022-12-11T19:26:49.061Z,43.33
2022-12-11T19:29:35.708Z,39.27
2022-12-11T19:32:02.395Z,40.73
2022-12-11T19:34:28.765Z,42.50
2022-12-11T19:36:55.525Z,41.50
2022-12-11T19:39:21.874Z,36.70
2022-12-11T19:41:48.625Z,32.77
2022-12-11T19:44:15.368Z,30.07
2022-12-11T19:46:41.786Z,28.70
2022-12-11T19:49:08.198Z,29.30
2022-12-11T19:51:38.517Z,29.90
2022-12-11T19:54:07.456Z,34.80
2022-12-11T19:56:34.956Z,35.00
2022-12-11T19:59:06.789Z,30.03
2022-12-11T20:01:35.303Z,26.10
2022-12-11T20:04:07.637Z,26.20
2022-12-11T20:06:37.414Z,25.50
2022-12-11T20:09:05.748Z,25.70
2022-12-11T20:11:33.420Z,23.57
2022-12-11T20:13:59.839Z,23.73
2022-12-11T20:16:53.430Z,24.00
2022-12-11T20:19:12.598Z,22.53
2022-12-11T20:21:38.958Z,21.33
2022-12-11T20:24:05.717Z,21.17
2022-12-11T20:26:35.841Z,21.43
2022-12-11T20:29:05.189Z,19.67
2022-12-11T20:31:31.603Z,19.20
2022-12-11T20:33:58.128Z,20.77
2022-12-11T20:36:25.534Z,19.50
2022-12-11T20:38:53.182Z,20.77
2022-12-11T20:41:21.547Z,19.33
2022-12-11T20:43:53.946Z,21.30
2022-12-11T20:46:22.710Z,20.40
2022-12-11T20:48:49.118Z,20.43
2022-12-11T20:51:22.445Z,21.53
2022-12-11T20:53:57.569Z,20.40
2022-12-11T20:56:26.598Z,19.90
2022-12-11T20:58:52.941Z,21.03
2022-12-11T21:01:22.666Z,19.00
2022-12-11T21:03:50.046Z,19.10
2022-12-11T21:06:25.760Z,18.83
2022-12-11T21:08:53.130Z,19.90
2022-12-11T21:11:19.640Z,17.27
2022-12-11T21:13:46.012Z,17.43
2022-12-11T21:16:12.715Z,17.73
2022-12-11T21:18:39.869Z,18.30
2022-12-11T21:21:06.561Z,18.27
2022-12-11T21:23:33.676Z,17.53
2022-12-11T21:26:00.106Z,19.33
2022-12-11T21:28:30.635Z,19.97
2022-12-11T21:31:06.225Z,20.40
2022-12-11T21:33:32.785Z,17.90
2022-12-11T21:36:00.367Z,19.17
2022-12-11T21:38:27.314Z,19.10
2022-12-11T21:40:54.646Z,19.87
2022-12-11T21:43:21.441Z,18.77
2022-12-11T21:46:04.036Z,19.70
2022-12-11T21:48:30.830Z,19.47
2022-12-11T21:51:05.597Z,18.20
2022-12-11T21:53:31.951Z,19.40
2022-12-11T21:55:58.345Z,20.33
2022-12-11T21:58:24.679Z,19.23
2022-12-11T22:00:51.559Z,18.23
2022-12-11T22:03:18.239Z,18.50
2022-12-11T22:05:44.599Z,19.03
2022-12-11T22:08:10.967Z,18.40
2022-12-11T22:10:37.412Z,17.27
2022-12-11T22:13:03.749Z,17.03
2022-12-11T22:15:30.117Z,17.97
2022-12-11T22:17:56.466Z,19.50
2022-12-11T22:20:22.819Z,18.40
2022-12-11T22:22:49.158Z,20.37
2022-12-11T22:25:15.621Z,18.20
2022-12-11T22:27:42.062Z,18.40
2022-12-11T22:30:09.074Z,16.77
2022-12-11T22:32:35.508Z,19.00
2022-12-11T22:35:02.103Z,17.67
2022-12-11T22:37:29.120Z,17.37
2022-12-11T22:39:55.747Z,18.03
2022-12-11T22:42:22.119Z,17.27
2022-12-11T22:44:48.491Z,17.23
2022-12-11T22:47:15.058Z,17.87
2022-12-11T22:49:41.450Z,17.90
2022-12-11T22:52:07.769Z,17.50
2022-12-11T22:54:34.138Z,16.97
2022-12-11T22:57:00.463Z,16.77
2022-12-11T22:59:26.802Z,17.23
2022-12-11T23:01:53.591Z,15.97
2022-12-11T23:04:19.935Z,17.00
2022-12-11T23:06:46.310Z,15.67
2022-12-11T23:09:12.779Z,16.50
2022-12-11T23:11:40.061Z,18.37
2022-12-11T23:14:08.873Z,18.00
2022-12-11T23:16:35.278Z,16.30
2022-12-11T23:19:02.373Z,17.43
2022-12-11T23:21:29.511Z,16.60
2022-12-11T23:23:56.897Z,16.87
2022-12-11T23:26:24.310Z,15.23
2022-12-11T23:28:50.636Z,17.67
2022-12-11T23:31:17.700Z,16.20
2022-12-11T23:33:44.624Z,17.17
2022-12-11T23:36:11.469Z,16.73
2022-12-11T23:38:38.057Z,17.40
2022-12-11T23:41:06.315Z,17.73
2022-12-11T23:43:35.997Z,17.10
2022-12-11T23:46:04.022Z,16.80
2022-12-11T23:48:31.196Z,16.30
2022-12-11T23:51:00.081Z,18.40
2022-12-11T23:53:27.568Z,18.57
2022-12-11T23:55:54.763Z,16.73
2022-12-11T23:58:21.430Z,18.53
